createdAt,value
2023-04-06T00:00:58.918Z,191.19
2023-04-06T00:01:58.965Z,183.34
2023-04-06T00:02:59.060Z,183.14
2023-04-06T00:03:59.042Z,177.85
2023-04-06T00:04:58.988Z,193.07
2023-04-06T00:05:59.049Z,209.30
2023-04-06T00:06:59.085Z,226.62
2023-04-06T00:07:59.124Z,234.52
2023-04-06T00:08:59.141Z,242.24
2023-04-06T00:09:59.166Z,250.00
2023-04-06T00:10:59.229Z,241.77
2023-04-06T00:11:59.185Z,241.02
2023-04-06T00:12:59.217Z,242.94
2023-04-06T00:13:59.253Z,238.07
2023-04-06T00:14:59.291Z,244.74
2023-04-06T00:15:59.289Z,238.35
2023-04-06T00:16:59.331Z,238.84
2023-04-06T00:17:59.403Z,239.49
2023-04-06T00:18:59.409Z,232.03
2023-04-06T00:19:59.444Z,240.56
2023-04-06T00:20:59.542Z,240.00
2023-04-06T00:21:59.574Z,238.06
2023-04-06T00:22:59.604Z,240.80
2023-04-06T00:23:59.648Z,241.79
2023-04-06T00:24:59.665Z,238.81
2023-04-06T00:25:59.712Z,236.26
2023-04-06T00:26:59.746Z,232.58
2023-04-06T00:27:59.817Z,224.46
2023-04-06T00:28:59.858Z,216.38
2023-04-06T00:29:59.895Z,208.66
2023-04-06T00:30:59.905Z,219.08
2023-04-06T00:32:00.073Z,198.56
2023-04-06T00:33:00.083Z,204.14
2023-04-06T00:34:00.035Z,218.13
2023-04-06T00:35:00.097Z,239.76
2023-04-06T00:36:00.125Z,249.82
2023-04-06T00:37:00.114Z,243.17
2023-04-06T00:38:00.121Z,244.62
2023-04-06T00:39:00.188Z,235.24
2023-04-06T00:40:00.216Z,234.74
2023-04-06T00:41:00.235Z,232.60
2023-04-06T00:42:00.241Z,232.80
2023-04-06T00:43:00.301Z,236.67
2023-04-06T00:44:00.326Z,229.35
2023-04-06T00:45:00.390Z,223.88
2023-04-06T00:46:00.433Z,217.01
2023-04-06T00:47:00.447Z,236.01
2023-04-06T00:48:00.512Z,250.86
2023-04-06T00:49:00.528Z,251.58
2023-04-06T00:50:00.565Z,232.11
2023-04-06T00:51:00.574Z,211.81
2023-04-06T00:52:00.618Z,203.34
2023-04-06T00:53:00.644Z,194.65
2023-04-06T00:54:00.727Z,188.00
2023-04-06T00:55:00.752Z,202.70
2023-04-06T00:56:00.766Z,237.22
2023-04-06T00:57:00.828Z,239.28
2023-04-06T00:58:00.858Z,248.45
2023-04-06T00:59:00.978Z,243.68
2023-04-06T01:00:00.935Z,247.07
2023-04-06T01:01:01.033Z,248.46
2023-04-06T01:02:01.035Z,243.29
2023-04-06T01:03:01.130Z,239.84
2023-04-06T01:04:01.144Z,242.52
2023-04-06T01:05:01.168Z,224.46
2023-04-06T01:06:01.181Z,209.26
2023-04-06T01:07:01.191Z,203.49
2023-04-06T01:08:01.233Z,202.16
2023-04-06T01:09:01.262Z,204.84
2023-04-06T01:10:01.305Z,238.20
2023-04-06T01:11:01.347Z,243.36
2023-04-06T01:12:01.380Z,229.88
2023-04-06T01:13:01.408Z,217.70
2023-04-06T01:14:01.437Z,217.76
2023-04-06T01:15:01.485Z,236.08
2023-04-06T01:16:01.536Z,251.62
2023-04-06T01:17:01.554Z,254.19
2023-04-06T01:18:01.674Z,244.85
2023-04-06T01:19:01.649Z,213.79
2023-04-06T01:20:01.679Z,197.79
2023-04-06T01:21:01.731Z,191.50
2023-04-06T01:22:01.766Z,185.51
2023-04-06T01:23:01.851Z,195.05
2023-04-06T01:24:01.845Z,198.48
2023-04-06T01:25:01.854Z,196.82
2023-04-06T01:26:01.899Z,206.26
2023-04-06T01:27:01.913Z,218.54
2023-04-06T01:28:01.962Z,218.83
2023-04-06T01:29:01.996Z,220.68
2023-04-06T01:30:02.053Z,217.18
2023-04-06T01:31:02.106Z,224.44
2023-04-06T01:32:02.113Z,236.14
2023-04-06T01:33:02.209Z,233.42
2023-04-06T01:34:02.190Z,216.88
2023-04-06T01:35:02.252Z,204.69
2023-04-06T01:36:02.293Z,198.46
2023-04-06T01:37:02.285Z,197.94
2023-04-06T01:38:02.323Z,195.10
2023-04-06T01:39:02.336Z,199.80
2023-04-06T01:40:02.370Z,207.75
2023-04-06T01:41:02.388Z,220.31
2023-04-06T01:42:02.434Z,238.31
2023-04-06T01:43:02.462Z,244.68
2023-04-06T01:44:02.564Z,247.24
2023-04-06T01:45:02.564Z,254.82
2023-04-06T01:46:02.586Z,246.99
2023-04-06T01:47:02.761Z,229.41
2023-04-06T01:48:02.719Z,217.81
2023-04-06T01:49:02.729Z,196.68
2023-04-06T01:50:02.752Z,187.99
2023-04-06T01:51:02.812Z,180.91
2023-04-06T01:52:02.829Z,179.20
2023-04-06T01:53:02.865Z,191.35
2023-04-06T01:54:02.920Z,195.86
2023-04-06T01:55:02.949Z,189.02
2023-04-06T01:56:02.980Z,198.61
2023-04-06T01:57:03.027Z,200.70
2023-04-06T01:58:03.076Z,191.07
2023-04-06T01:59:03.191Z,184.08
2023-04-06T02:00:03.180Z,188.13
2023-04-06T02:01:03.247Z,194.08
2023-04-06T02:02:03.301Z,187.51
2023-04-06T02:03:03.375Z,190.77
2023-04-06T02:04:03.340Z,181.68
2023-04-06T02:05:03.383Z,181.09
2023-04-06T02:06:03.407Z,185.02
2023-04-06T02:07:03.438Z,195.38
2023-04-06T02:08:03.467Z,212.19
2023-04-06T02:09:03.495Z,218.79
2023-04-06T02:10:03.521Z,226.27
2023-04-06T02:11:03.538Z,205.13
2023-04-06T02:12:03.560Z,206.12
2023-04-06T02:13:03.623Z,225.85
2023-04-06T02:14:03.664Z,232.73
2023-04-06T02:15:03.693Z,223.93
2023-04-06T02:16:03.877Z,207.02
2023-04-06T02:17:03.798Z,194.86
2023-04-06T02:18:03.852Z,198.60
2023-04-06T02:19:03.888Z,202.55
2023-04-06T02:20:03.928Z,195.95
2023-04-06T02:21:03.947Z,195.56
2023-04-06T02:22:04.004Z,193.62
2023-04-06T02:23:04.080Z,201.38
2023-04-06T02:24:04.109Z,217.83
2023-04-06T02:25:04.168Z,228.20
2023-04-06T02:26:04.209Z,234.47
2023-04-06T02:27:04.250Z,234.80
2023-04-06T02:28:04.323Z,222.89
2023-04-06T02:29:04.349Z,223.03
2023-04-06T02:30:04.380Z,225.05
2023-04-06T02:31:04.405Z,225.07
2023-04-06T02:32:04.508Z,225.02
2023-04-06T02:33:04.460Z,228.19
2023-04-06T02:34:04.461Z,222.06
2023-04-06T02:35:04.505Z,222.60
2023-04-06T02:36:04.603Z,219.73
2023-04-06T02:37:04.579Z,228.90
2023-04-06T02:38:04.583Z,234.39
2023-04-06T02:39:04.641Z,242.89
2023-04-06T02:40:04.688Z,240.29
2023-04-06T02:41:04.735Z,240.98
2023-04-06T02:42:04.769Z,244.11
2023-04-06T02:43:04.810Z,242.36
2023-04-06T02:44:04.829Z,246.28
2023-04-06T02:45:04.855Z,248.55
2023-04-06T02:46:04.961Z,244.69
2023-04-06T02:47:04.940Z,242.17
2023-04-06T02:48:04.996Z,242.85
2023-04-06T02:49:05.028Z,248.37
2023-04-06T02:50:05.035Z,248.96
2023-04-06T02:51:05.068Z,250.00
2023-04-06T02:52:05.126Z,247.87
2023-04-06T02:53:05.155Z,250.08
2023-04-06T02:54:05.166Z,249.10
2023-04-06T02:55:05.216Z,248.74
2023-04-06T02:56:05.268Z,241.76
2023-04-06T02:57:05.267Z,236.39
2023-04-06T02:58:05.284Z,231.35
2023-04-06T02:59:05.353Z,232.13
2023-04-06T03:00:05.359Z,231.18
2023-04-06T03:01:05.403Z,226.16
2023-04-06T03:02:05.433Z,230.28
2023-04-06T03:03:05.547Z,235.76
2023-04-06T03:04:05.446Z,243.23
2023-04-06T03:05:05.482Z,240.26
2023-04-06T03:06:05.502Z,236.26
2023-04-06T03:07:05.535Z,240.48
2023-04-06T03:08:05.545Z,243.04
2023-04-06T03:09:05.688Z,249.14
2023-04-06T03:10:05.628Z,250.60
2023-04-06T03:11:05.656Z,247.01
2023-04-06T03:12:07.054Z,250.00
2023-04-06T03:13:05.668Z,249.31
2023-04-06T03:14:05.679Z,249.98
2023-04-06T03:15:05.668Z,250.37
2023-04-06T03:16:05.735Z,248.99
2023-04-06T03:17:05.652Z,250.00
2023-04-06T03:18:05.668Z,247.66
2023-04-06T03:19:05.633Z,243.19
2023-04-06T03:20:05.631Z,241.00
2023-04-06T03:21:05.620Z,241.05
2023-04-06T03:22:05.620Z,243.57
2023-04-06T03:23:05.610Z,250.50
2023-04-06T03:24:05.629Z,250.00
2023-04-06T03:25:05.581Z,249.94
2023-04-06T03:26:05.608Z,245.55
2023-04-06T03:27:05.583Z,244.19
2023-04-06T03:28:05.558Z,241.54
2023-04-06T03:29:05.613Z,242.54
2023-04-06T03:30:05.562Z,242.72
2023-04-06T03:31:05.562Z,238.65
2023-04-06T03:32:05.548Z,242.78
2023-04-06T03:33:05.590Z,246.13
2023-04-06T03:34:05.530Z,242.85
2023-04-06T03:35:05.505Z,244.37
2023-04-06T03:36:05.495Z,242.54
2023-04-06T03:37:10.440Z,246.10
2023-04-06T03:38:06.501Z,242.74
2023-04-06T03:39:05.488Z,241.87
2023-04-06T03:40:05.493Z,242.90
2023-04-06T03:41:05.466Z,240.73
2023-04-06T03:42:05.461Z,247.58
2023-04-06T03:43:05.494Z,248.67
2023-04-06T03:44:05.449Z,249.94
2023-04-06T03:45:05.440Z,249.60
2023-04-06T03:46:05.462Z,249.08
2023-04-06T03:47:05.423Z,250.00
2023-04-06T03:48:05.500Z,245.43
2023-04-06T03:49:05.497Z,250.00
2023-04-06T03:50:05.417Z,246.58
2023-04-06T03:51:05.409Z,248.27
2023-04-06T03:52:05.384Z,245.57
2023-04-06T03:53:05.406Z,244.06
2023-04-06T03:54:05.427Z,242.41
2023-04-06T03:55:05.499Z,242.65
2023-04-06T03:56:05.496Z,249.80
2023-04-06T03:57:05.497Z,250.22
2023-04-06T03:58:05.516Z,249.09
2023-04-06T03:59:05.634Z,248.43
2023-04-06T04:00:05.592Z,246.07
2023-04-06T04:01:05.605Z,241.73
2023-04-06T04:02:05.728Z,235.47
2023-04-06T04:03:05.751Z,236.67
2023-04-06T04:04:05.751Z,234.11
2023-04-06T04:05:05.794Z,235.64
2023-04-06T04:06:05.776Z,239.55
2023-04-06T04:07:05.801Z,235.56
2023-04-06T04:08:05.844Z,235.08
2023-04-06T04:09:05.877Z,233.62
2023-04-06T04:10:05.886Z,232.87
2023-04-06T04:11:05.900Z,235.73
2023-04-06T04:12:05.885Z,236.21
2023-04-06T04:13:05.922Z,234.04
2023-04-06T04:14:05.927Z,232.31
2023-04-06T04:15:06.007Z,232.00
2023-04-06T04:16:06.010Z,230.85
2023-04-06T04:17:06.045Z,231.04
2023-04-06T04:18:06.132Z,232.74
2023-04-06T04:19:06.291Z,230.17
2023-04-06T04:20:06.162Z,232.57
2023-04-06T04:21:06.142Z,233.23
2023-04-06T04:22:06.142Z,233.32
2023-04-06T04:23:06.201Z,232.90
2023-04-06T04:24:06.231Z,228.73
2023-04-06T04:25:06.264Z,228.86
2023-04-06T04:26:06.290Z,227.15
2023-04-06T04:27:06.302Z,227.13
2023-04-06T04:28:06.329Z,221.95
2023-04-06T04:29:06.662Z,219.27
2023-04-06T04:30:06.393Z,218.75
2023-04-06T04:31:06.473Z,214.22
2023-04-06T04:32:06.548Z,213.56
2023-04-06T04:33:06.570Z,215.91
2023-04-06T04:34:06.565Z,215.72
2023-04-06T04:35:06.647Z,215.29
2023-04-06T04:36:06.656Z,214.41
2023-04-06T04:37:06.605Z,216.88
2023-04-06T04:38:06.663Z,217.44
2023-04-06T04:39:06.963Z,218.99
2023-04-06T04:40:06.701Z,222.98
2023-04-06T04:41:06.725Z,228.84
2023-04-06T04:42:06.764Z,232.43
2023-04-06T04:43:06.786Z,233.74
2023-04-06T04:44:06.808Z,233.63
2023-04-06T04:45:06.833Z,236.08
2023-04-06T04:46:07.311Z,233.78
2023-04-06T04:47:06.856Z,232.78
2023-04-06T04:48:06.905Z,234.16
2023-04-06T04:49:06.961Z,235.98
2023-04-06T04:50:06.885Z,238.01
2023-04-06T04:51:06.887Z,239.97
2023-04-06T04:52:06.920Z,237.85
2023-04-06T04:53:06.927Z,239.90
2023-04-06T04:54:06.931Z,238.54
2023-04-06T04:55:06.936Z,236.07
2023-04-06T04:56:06.979Z,232.44
2023-04-06T04:57:06.956Z,232.31
2023-04-06T04:58:06.986Z,232.60
2023-04-06T04:59:07.320Z,236.43
2023-04-06T05:00:07.077Z,240.24
2023-04-06T05:01:07.077Z,243.31
2023-04-06T05:02:07.120Z,243.91
2023-04-06T05:03:07.148Z,245.16
2023-04-06T05:04:07.081Z,249.33
2023-04-06T05:05:07.121Z,249.35
2023-04-06T05:06:07.137Z,250.23
2023-04-06T05:07:07.152Z,249.46
2023-04-06T05:08:07.187Z,248.68
2023-04-06T05:09:07.265Z,250.00
2023-04-06T05:10:07.286Z,247.08
2023-04-06T05:11:07.277Z,248.17
2023-04-06T05:12:07.296Z,249.65
2023-04-06T05:13:07.311Z,249.70
2023-04-06T05:14:07.347Z,250.40
2023-04-06T05:15:07.381Z,250.00
2023-04-06T05:16:07.483Z,249.88
2023-04-06T05:17:07.413Z,246.20
2023-04-06T05:18:07.483Z,239.57
2023-04-06T05:19:07.771Z,242.72
2023-04-06T05:20:07.544Z,238.54
2023-04-06T05:21:07.564Z,236.15
2023-04-06T05:22:07.556Z,235.05
2023-04-06T05:23:07.618Z,233.60
2023-04-06T05:24:07.593Z,231.14
2023-04-06T05:25:07.632Z,234.94
2023-04-06T05:26:07.657Z,234.62
2023-04-06T05:27:07.700Z,233.64
2023-04-06T05:28:07.798Z,239.23
2023-04-06T05:29:07.905Z,241.21
2023-04-06T05:30:07.819Z,241.05
2023-04-06T05:31:07.861Z,241.55
2023-04-06T05:32:07.870Z,244.59
2023-04-06T05:33:07.927Z,241.22
2023-04-06T05:34:07.910Z,243.14
2023-04-06T05:35:07.946Z,244.78
2023-04-06T05:36:08.047Z,249.68
2023-04-06T05:37:08.016Z,249.46
2023-04-06T05:38:08.041Z,249.27
2023-04-06T05:39:08.327Z,248.70
2023-04-06T05:40:08.126Z,249.66
2023-04-06T05:41:08.164Z,247.02
2023-04-06T05:42:08.222Z,247.77
2023-04-06T05:43:08.248Z,248.65
2023-04-06T05:44:08.297Z,248.82
2023-04-06T05:45:08.371Z,248.76
2023-04-06T05:46:08.431Z,249.12
2023-04-06T05:47:08.421Z,249.60
2023-04-06T05:48:08.544Z,249.58
2023-04-06T05:49:08.854Z,248.73
2023-04-06T05:50:08.551Z,249.63
2023-04-06T05:51:08.575Z,250.00
2023-04-06T05:52:08.590Z,250.00
2023-04-06T05:53:08.596Z,250.00
2023-04-06T05:54:08.649Z,250.00
2023-04-06T05:55:10.640Z,250.00
2023-04-06T05:56:08.724Z,248.72
2023-04-06T05:57:08.733Z,244.01
2023-04-06T05:58:08.765Z,236.60
2023-04-06T05:59:09.044Z,228.83
2023-04-06T06:00:08.851Z,223.15
2023-04-06T06:01:08.865Z,221.50
2023-04-06T06:02:08.912Z,227.91
2023-04-06T06:03:08.976Z,221.44
2023-04-06T06:04:08.958Z,220.68
2023-04-06T06:05:09.012Z,226.18
2023-04-06T06:06:09.011Z,233.11
2023-04-06T06:07:09.074Z,243.26
2023-04-06T06:08:09.092Z,250.81
2023-04-06T06:09:09.287Z,249.81
2023-04-06T06:10:09.186Z,245.84
2023-04-06T06:11:09.206Z,238.23
2023-04-06T06:12:09.227Z,232.99
2023-04-06T06:13:09.324Z,232.52
2023-04-06T06:14:09.329Z,233.29
2023-04-06T06:15:09.398Z,232.99
2023-04-06T06:16:09.469Z,235.25
2023-04-06T06:17:09.477Z,236.24
2023-04-06T06:18:09.544Z,233.26
2023-04-06T06:19:09.638Z,229.38
2023-04-06T06:20:09.579Z,228.78
2023-04-06T06:21:09.587Z,227.78
2023-04-06T06:22:09.608Z,227.21
2023-04-06T06:23:09.641Z,225.31
2023-04-06T06:24:09.622Z,225.69
2023-04-06T06:25:09.792Z,228.57
2023-04-06T06:26:09.670Z,229.26
2023-04-06T06:27:09.741Z,230.05
2023-04-06T06:28:09.773Z,231.98
2023-04-06T06:29:10.104Z,232.10
2023-04-06T06:30:09.884Z,231.81
2023-04-06T06:31:10.278Z,239.70
2023-04-06T06:32:09.992Z,241.71
2023-04-06T06:33:10.009Z,243.62
2023-04-06T06:34:10.048Z,245.24
2023-04-06T06:35:10.082Z,247.01
2023-04-06T06:36:10.144Z,249.70
2023-04-06T06:37:10.141Z,250.00
2023-04-06T06:38:10.193Z,249.67
2023-04-06T06:39:10.464Z,250.00
2023-04-06T06:40:10.270Z,249.93
2023-04-06T06:41:10.293Z,249.94
2023-04-06T06:42:10.362Z,250.09
2023-04-06T06:43:10.402Z,249.81
2023-04-06T06:44:10.648Z,249.84
2023-04-06T06:45:10.518Z,249.30
2023-04-06T06:46:10.615Z,248.51
2023-04-06T06:47:10.637Z,248.52
2023-04-06T06:48:10.672Z,248.42
2023-04-06T06:49:10.692Z,249.70
2023-04-06T06:50:10.736Z,249.86
2023-04-06T06:51:10.771Z,249.11
2023-04-06T06:52:10.794Z,248.98
2023-04-06T06:53:10.802Z,250.00
2023-04-06T06:54:11.064Z,249.86
2023-04-06T06:55:10.903Z,248.83
2023-04-06T06:56:11.011Z,249.07
2023-04-06T06:57:11.049Z,248.20
2023-04-06T06:58:11.060Z,247.28
2023-04-06T06:59:11.097Z,245.38
2023-04-06T07:00:12.903Z,246.32
2023-04-06T07:01:11.147Z,246.63
2023-04-06T07:02:11.152Z,245.83
2023-04-06T07:03:11.159Z,244.83
2023-04-06T07:04:11.397Z,243.86
2023-04-06T07:05:26.210Z,242.57
2023-04-06T07:06:12.239Z,240.74
2023-04-06T07:07:11.208Z,240.52
2023-04-06T07:08:11.216Z,240.40
2023-04-06T07:09:11.198Z,239.61
2023-04-06T07:10:11.233Z,238.30
2023-04-06T07:11:11.198Z,237.49
2023-04-06T07:12:11.204Z,236.48
2023-04-06T07:13:11.188Z,236.42
2023-04-06T07:14:11.308Z,234.91
2023-04-06T07:15:11.185Z,233.96
2023-04-06T07:16:11.232Z,233.68
2023-04-06T07:17:11.220Z,231.70
2023-04-06T07:18:11.229Z,232.55
2023-04-06T07:19:11.209Z,232.99
2023-04-06T07:20:11.165Z,231.57
2023-04-06T07:21:11.180Z,232.85
2023-04-06T07:22:11.101Z,231.59
2023-04-06T07:23:11.167Z,230.96
2023-04-06T07:24:11.450Z,229.97
2023-04-06T07:25:11.321Z,228.29
2023-04-06T07:26:11.241Z,228.78
2023-04-06T07:27:11.291Z,228.36
2023-04-06T07:28:11.310Z,227.48
2023-04-06T07:29:11.373Z,225.86
2023-04-06T07:30:11.397Z,225.91
2023-04-06T07:31:11.416Z,224.81
2023-04-06T07:32:11.542Z,223.92
2023-04-06T07:33:11.471Z,221.74
2023-04-06T07:34:11.506Z,221.95
2023-04-06T07:35:11.589Z,220.38
2023-04-06T07:36:11.563Z,218.98
2023-04-06T07:37:11.598Z,218.37
2023-04-06T07:38:11.616Z,217.94
2023-04-06T07:39:11.639Z,217.15
2023-04-06T07:40:11.638Z,214.31
2023-04-06T07:41:11.648Z,212.62
2023-04-06T07:42:11.710Z,209.90
2023-04-06T07:43:11.763Z,208.84
2023-04-06T07:44:11.803Z,206.12
2023-04-06T07:45:11.865Z,204.39
2023-04-06T07:46:11.931Z,204.09
2023-04-06T07:47:11.901Z,202.01
2023-04-06T07:48:11.919Z,200.23
2023-04-06T07:49:11.940Z,198.96
2023-04-06T07:50:11.954Z,199.44
2023-04-06T07:51:11.959Z,197.79
2023-04-06T07:52:11.999Z,196.18
2023-04-06T07:53:12.024Z,195.57
2023-04-06T07:54:12.011Z,195.98
2023-04-06T07:55:12.025Z,195.79
2023-04-06T07:56:12.086Z,197.43
2023-04-06T07:57:12.091Z,198.12
2023-04-06T07:58:12.221Z,198.15
2023-04-06T07:59:12.205Z,199.23
2023-04-06T08:00:12.193Z,195.95
2023-04-06T08:01:12.204Z,196.72
2023-04-06T08:02:12.292Z,196.91
2023-04-06T08:03:12.475Z,196.33
2023-04-06T08:04:12.674Z,195.18
2023-04-06T08:05:12.371Z,194.23
2023-04-06T08:06:12.389Z,194.49
2023-04-06T08:07:12.420Z,193.23
2023-04-06T08:08:12.444Z,192.48
2023-04-06T08:09:12.502Z,193.05
2023-04-06T08:10:12.544Z,193.10
2023-04-06T08:11:12.571Z,194.19
2023-04-06T08:12:12.621Z,190.93
2023-04-06T08:13:12.606Z,191.31
2023-04-06T08:14:12.662Z,188.64
2023-04-06T08:15:12.671Z,188.55
2023-04-06T08:16:12.743Z,187.31
2023-04-06T08:17:12.777Z,189.74
2023-04-06T08:18:12.784Z,187.78
2023-04-06T08:19:12.794Z,188.59
2023-04-06T08:20:12.851Z,185.68
2023-04-06T08:21:12.888Z,184.90
2023-04-06T08:22:12.938Z,185.59
2023-04-06T08:23:12.952Z,182.73
2023-04-06T08:24:12.973Z,182.02
2023-04-06T08:25:13.002Z,183.21
2023-04-06T08:26:13.027Z,181.76
2023-04-06T08:27:13.078Z,181.57
2023-04-06T08:28:13.142Z,183.59
2023-04-06T08:29:13.145Z,183.44
2023-04-06T08:30:13.176Z,182.87
2023-04-06T08:31:13.266Z,179.97
2023-04-06T08:32:13.222Z,178.83
2023-04-06T08:33:13.238Z,176.49
2023-04-06T08:34:14.224Z,174.41
2023-04-06T08:35:13.313Z,177.37
2023-04-06T08:36:13.391Z,175.36
2023-04-06T08:37:13.433Z,175.69
2023-04-06T08:38:13.463Z,175.93
2023-04-06T08:39:13.505Z,174.11
2023-04-06T08:40:13.559Z,173.75
2023-04-06T08:41:13.580Z,173.39
2023-04-06T08:42:13.653Z,175.14
2023-04-06T08:43:13.679Z,173.94
2023-04-06T08:44:13.734Z,173.02
2023-04-06T08:45:13.766Z,172.81
2023-04-06T08:46:13.811Z,173.97
2023-04-06T08:47:13.836Z,174.59
2023-04-06T08:48:13.891Z,174.18
2023-04-06T08:49:13.913Z,174.89
2023-04-06T08:50:13.910Z,174.48
2023-04-06T08:51:13.945Z,172.26
2023-04-06T08:52:13.989Z,171.69
2023-04-06T08:53:14.014Z,169.88
2023-04-06T08:54:14.034Z,171.22
2023-04-06T08:55:14.076Z,170.37
2023-04-06T08:56:14.068Z,168.65
2023-04-06T08:57:14.107Z,167.75
2023-04-06T08:58:17.341Z,169.21
2023-04-06T08:59:15.167Z,168.75
2023-04-06T09:00:14.088Z,166.85
2023-04-06T09:01:14.104Z,167.83
2023-04-06T09:02:14.190Z,167.29
2023-04-06T09:03:14.205Z,167.19
2023-04-06T09:04:14.517Z,165.19
2023-04-06T09:05:14.069Z,163.20
2023-04-06T09:06:14.066Z,165.74
2023-04-06T09:07:14.048Z,164.14
2023-04-06T09:08:14.048Z,165.30
2023-04-06T09:09:14.040Z,163.91
2023-04-06T09:10:14.043Z,164.23
2023-04-06T09:11:14.025Z,163.75
2023-04-06T09:12:14.064Z,163.28
2023-04-06T09:13:14.114Z,164.07
2023-04-06T09:14:14.094Z,164.56
2023-04-06T09:15:14.119Z,165.20
2023-04-06T09:16:14.280Z,165.37
2023-04-06T09:17:14.201Z,166.72
2023-04-06T09:18:14.222Z,167.34
2023-04-06T09:19:14.272Z,165.31
2023-04-06T09:20:14.305Z,166.55
2023-04-06T09:21:14.342Z,166.59
2023-04-06T09:22:14.306Z,167.00
2023-04-06T09:23:14.363Z,165.19
2023-04-06T09:24:14.376Z,165.92
2023-04-06T09:25:14.400Z,164.21
2023-04-06T09:26:14.404Z,164.09
2023-04-06T09:27:14.421Z,164.01
2023-04-06T09:28:14.445Z,163.02
2023-04-06T09:29:14.486Z,163.79
2023-04-06T09:30:14.578Z,161.31
2023-04-06T09:31:14.569Z,161.48
2023-04-06T09:32:14.558Z,163.26
2023-04-06T09:33:14.584Z,160.77
2023-04-06T09:34:14.609Z,159.65
2023-04-06T09:35:14.631Z,161.27
2023-04-06T09:36:14.677Z,158.39
2023-04-06T09:37:14.686Z,157.26
2023-04-06T09:38:14.711Z,160.21
2023-04-06T09:39:14.730Z,159.64
2023-04-06T09:40:14.784Z,160.57
2023-04-06T09:41:14.778Z,159.38
2023-04-06T09:42:14.804Z,157.71
2023-04-06T09:43:14.851Z,157.95
2023-04-06T09:44:14.880Z,158.49
2023-04-06T09:45:14.906Z,159.21
2023-04-06T09:46:14.973Z,158.47
2023-04-06T09:47:15.003Z,157.47
2023-04-06T09:48:15.025Z,158.24
2023-04-06T09:49:14.997Z,154.49
2023-04-06T09:50:15.030Z,155.99
2023-04-06T09:51:15.059Z,155.65
2023-04-06T09:52:15.094Z,155.74
2023-04-06T09:53:15.098Z,155.37
2023-04-06T09:54:15.130Z,155.23
2023-04-06T09:55:15.234Z,154.93
2023-04-06T09:56:15.183Z,155.61
2023-04-06T09:57:15.371Z,158.33
2023-04-06T09:58:15.316Z,158.05
2023-04-06T09:59:15.321Z,155.93
2023-04-06T10:00:15.333Z,154.84
2023-04-06T10:01:15.394Z,153.15
2023-04-06T10:02:15.372Z,155.05
2023-04-06T10:03:15.455Z,155.72
2023-04-06T10:04:15.715Z,153.56
2023-04-06T10:05:15.450Z,155.15
2023-04-06T10:06:15.484Z,153.94
2023-04-06T10:07:15.494Z,155.23
2023-04-06T10:08:15.548Z,155.25
2023-04-06T10:09:15.555Z,154.34
2023-04-06T10:10:15.589Z,157.25
2023-04-06T10:11:15.615Z,153.62
2023-04-06T10:12:15.651Z,155.92
2023-04-06T10:13:15.703Z,154.93
2023-04-06T10:14:15.711Z,153.48
2023-04-06T10:15:15.759Z,160.16
2023-04-06T10:16:15.863Z,154.06
2023-04-06T10:17:15.843Z,153.04
2023-04-06T10:18:15.861Z,158.56
2023-04-06T10:19:15.912Z,166.88
2023-04-06T10:20:15.978Z,162.63
2023-04-06T10:21:15.991Z,155.34
2023-04-06T10:22:15.990Z,151.83
2023-04-06T10:23:15.979Z,149.30
2023-04-06T10:24:15.989Z,150.28
2023-04-06T10:25:15.991Z,141.77
2023-04-06T10:26:16.008Z,142.03
2023-04-06T10:27:16.022Z,143.52
2023-04-06T10:28:16.049Z,135.31
2023-04-06T10:29:16.099Z,134.35
2023-04-06T10:30:16.164Z,135.69
2023-04-06T10:31:16.241Z,132.72
2023-04-06T10:32:16.299Z,128.20
2023-04-06T10:33:16.347Z,123.65
2023-04-06T10:34:16.332Z,119.90
2023-04-06T10:35:16.329Z,121.21
2023-04-06T10:36:16.486Z,120.15
2023-04-06T10:37:16.400Z,122.92
2023-04-06T10:38:16.437Z,120.49
2023-04-06T10:39:16.481Z,118.68
2023-04-06T10:40:16.551Z,116.57
2023-04-06T10:41:16.586Z,115.81
2023-04-06T10:42:16.652Z,116.25
2023-04-06T10:43:16.703Z,113.83
2023-04-06T10:44:16.745Z,113.25
2023-04-06T10:45:16.766Z,114.30
2023-04-06T10:46:16.841Z,112.49
2023-04-06T10:47:16.831Z,110.54
2023-04-06T10:48:16.864Z,107.79
2023-04-06T10:49:16.888Z,108.16
2023-04-06T10:50:16.961Z,110.52
2023-04-06T10:51:16.944Z,109.81
2023-04-06T10:52:16.963Z,109.33
2023-04-06T10:53:17.022Z,106.10
2023-04-06T10:54:17.022Z,105.71
2023-04-06T10:55:17.086Z,105.67
2023-04-06T10:56:17.107Z,104.70
2023-04-06T10:57:17.138Z,108.72
2023-04-06T10:58:17.166Z,107.28
2023-04-06T10:59:17.234Z,103.16
2023-04-06T11:00:17.306Z,105.08
2023-04-06T11:01:17.412Z,103.13
2023-04-06T11:02:17.294Z,102.82
2023-04-06T11:03:17.329Z,105.31
2023-04-06T11:04:17.449Z,105.07
2023-04-06T11:05:17.394Z,102.72
2023-04-06T11:06:17.420Z,102.27
2023-04-06T11:07:17.493Z,99.71
2023-04-06T11:08:17.503Z,99.88
2023-04-06T11:09:17.532Z,94.96
2023-04-06T11:10:20.216Z,100.85
2023-04-06T11:11:17.551Z,94.85
2023-04-06T11:12:17.546Z,93.98
2023-04-06T11:13:17.553Z,97.34
2023-04-06T11:14:17.529Z,93.20
2023-04-06T11:15:17.520Z,97.14
2023-04-06T11:16:17.556Z,98.04
2023-04-06T11:17:17.555Z,97.96
2023-04-06T11:18:17.510Z,103.02
2023-04-06T11:19:17.504Z,103.21
2023-04-06T11:20:17.509Z,104.04
2023-04-06T11:21:17.520Z,110.46
2023-04-06T11:22:17.496Z,101.59
2023-04-06T11:23:17.483Z,99.46
2023-04-06T11:24:17.468Z,99.94
2023-04-06T11:25:17.454Z,97.84
2023-04-06T11:26:17.462Z,90.88
2023-04-06T11:27:17.437Z,96.16
2023-04-06T11:28:17.443Z,97.49
2023-04-06T11:29:17.488Z,91.73
2023-04-06T11:30:17.437Z,89.48
2023-04-06T11:31:18.446Z,99.20
2023-04-06T11:32:17.405Z,98.09
2023-04-06T11:33:17.402Z,98.51
2023-04-06T11:34:17.419Z,98.63
2023-04-06T11:35:17.404Z,99.81
2023-04-06T11:36:17.414Z,98.42
2023-04-06T11:37:17.368Z,95.85
2023-04-06T11:38:17.369Z,100.90
2023-04-06T11:39:17.387Z,101.79
2023-04-06T11:40:17.352Z,94.36
2023-04-06T11:41:17.343Z,103.07
2023-04-06T11:42:17.344Z,101.81
2023-04-06T11:43:17.322Z,99.60
2023-04-06T11:44:17.330Z,105.62
2023-04-06T11:45:17.325Z,102.76
2023-04-06T11:46:17.329Z,104.78
2023-04-06T11:47:17.316Z,98.91
2023-04-06T11:48:17.312Z,104.91
2023-04-06T11:49:17.362Z,93.97
2023-04-06T11:50:17.270Z,95.63
2023-04-06T11:51:17.286Z,94.20
2023-04-06T11:52:17.261Z,95.54
2023-04-06T11:53:17.250Z,102.01
2023-04-06T11:54:17.261Z,104.24
2023-04-06T11:55:17.250Z,100.98
2023-04-06T11:56:17.245Z,97.45
2023-04-06T11:57:17.256Z,102.55
2023-04-06T11:58:17.301Z,105.22
2023-04-06T11:59:17.400Z,102.73
2023-04-06T12:00:17.420Z,106.31
2023-04-06T12:01:17.458Z,104.59
2023-04-06T12:02:17.514Z,109.35
2023-04-06T12:03:17.585Z,113.00
2023-04-06T12:04:17.763Z,100.35
2023-04-06T12:05:17.618Z,99.73
2023-04-06T12:06:17.687Z,98.93
2023-04-06T12:07:17.750Z,99.55
2023-04-06T12:08:17.781Z,96.75
2023-04-06T12:09:17.845Z,90.86
2023-04-06T12:10:17.916Z,97.22
2023-04-06T12:11:17.909Z,98.89
2023-04-06T12:12:17.937Z,89.91
2023-04-06T12:13:17.989Z,89.34
2023-04-06T12:14:18.050Z,96.01
2023-04-06T12:15:18.041Z,85.95
2023-04-06T12:16:18.086Z,91.14
2023-04-06T12:17:18.109Z,88.57
2023-04-06T12:18:18.146Z,92.04
2023-04-06T12:19:18.166Z,96.19
2023-04-06T12:20:25.819Z,96.49
2023-04-06T12:21:19.188Z,96.56
2023-04-06T12:22:18.184Z,96.52
2023-04-06T12:23:18.180Z,94.26
2023-04-06T12:24:18.158Z,96.49
2023-04-06T12:25:18.179Z,87.72
2023-04-06T12:26:18.163Z,85.73
2023-04-06T12:27:18.131Z,89.95
2023-04-06T12:28:18.152Z,86.12
2023-04-06T12:29:18.146Z,86.40
2023-04-06T12:30:18.115Z,82.81
2023-04-06T12:31:18.132Z,89.13